Time;durP1;ratioP1;P1;durP2;ratioP2;P2;SDS_P1;SDS_P2;PMS_P1;PMS_P2;Temp;Humidity;BMP_temperature;BMP_pressure;BME280_temperature;BME280_humidity;BME280_pressure;Samples;Min_cycle;Max_cycle;Signal;HPM_P1;HPM_P2
2022/05/04 00:01:03;;;;;;;10.20;1.98;;;9.40;99.90;;;;;;4971798;28;20029;-86
2022/05/04 00:03:29;;;;;;;8.88;1.40;;;9.30;99.90;;;;;;4974617;28;20130;-85
2022/05/04 00:05:54;;;;;;;7.60;1.60;;;9.30;99.90;;;;;;4974514;28;20044;-86
2022/05/04 00:08:20;;;;;;;8.02;1.70;;;9.40;99.90;;;;;;4975281;28;20050;-86
2022/05/04 00:10:45;;;;;;;4.03;1.30;;;9.40;99.90;;;;;;4975256;28;20537;-86
2022/05/04 00:13:11;;;;;;;8.80;1.88;;;9.40;99.90;;;;;;4969733;28;20023;-84
2022/05/04 00:15:37;;;;;;;12.68;1.38;;;9.30;99.90;;;;;;4976065;28;20033;-86
2022/05/04 00:18:03;;;;;;;6.38;1.33;;;9.30;99.90;;;;;;4974394;28;20014;-86
2022/05/04 00:20:29;;;;;;;9.60;1.67;;;9.30;99.90;;;;;;4971883;28;20502;-86
2022/05/04 00:22:54;;;;;;;7.80;1.55;;;9.30;99.90;;;;;;4975608;28;20059;-86
2022/05/04 00:25:20;;;;;;;6.25;1.60;;;9.30;99.90;;;;;;4979504;28;20030;-86
2022/05/04 00:27:45;;;;;;;9.77;1.55;;;9.30;99.90;;;;;;4979471;28;20093;-86
2022/05/04 00:30:12;;;;;;;10.10;1.65;;;9.20;99.90;;;;;;4994912;28;20052;-86
2022/05/04 00:32:37;;;;;;;6.63;1.63;;;9.20;99.90;;;;;;4976106;28;20417;-86
2022/05/04 00:35:03;;;;;;;5.78;1.42;;;9.20;99.90;;;;;;4979052;28;20030;-86
2022/05/04 00:37:29;;;;;;;15.88;1.77;;;9.20;99.90;;;;;;4979076;28;20033;-86
2022/05/04 00:39:54;;;;;;;11.32;1.70;;;9.20;99.90;;;;;;4978525;28;20022;-86
2022/05/04 00:42:21;;;;;;;6.32;1.67;;;9.30;99.90;;;;;;4970982;28;20070;-85
2022/05/04 00:44:49;;;;;;;11.68;1.85;;;9.20;99.90;;;;;;4966995;28;20036;-86
2022/05/04 00:47:15;;;;;;;9.60;1.80;;;9.20;99.90;;;;;;4986539;28;20398;-86
2022/05/04 00:49:43;;;;;;;10.60;1.83;;;9.20;99.90;;;;;;4978851;28;20054;-86
2022/05/04 00:52:13;;;;;;;8.52;2.10;;;9.20;99.90;;;;;;4992338;28;20034;-86
2022/05/04 00:54:42;;;;;;;8.20;1.35;;;9.20;99.90;;;;;;4978780;28;20038;-86
2022/05/04 00:57:08;;;;;;;9.63;1.55;;;9.20;99.90;;;;;;4999069;28;20057;-85
2022/05/04 00:59:37;;;;;;;11.93;2.15;;;9.10;99.90;;;;;;4981772;28;20046;-87
2022/05/04 01:02:02;;;;;;;5.45;1.40;;;9.10;99.90;;;;;;4976201;28;20398;-86
2022/05/04 01:04:28;;;;;;;6.95;1.13;;;9.20;99.90;;;;;;4978422;28;20038;-87
2022/05/04 01:06:53;;;;;;;9.18;1.70;;;9.20;99.90;;;;;;4978931;28;20022;-86
2022/05/04 01:09:19;;;;;;;10.43;1.40;;;9.20;99.90;;;;;;4977068;28;20031;-85
2022/05/04 01:11:46;;;;;;;5.38;1.30;;;9.20;99.90;;;;;;4991337;28;20042;-85
2022/05/04 01:14:12;;;;;;;7.63;1.30;;;9.20;99.90;;;;;;4995405;28;20019;-86
2022/05/04 01:16:40;;;;;;;10.75;2.10;;;9.20;99.90;;;;;;4959654;28;20324;-86
2022/05/04 01:19:07;;;;;;;8.38;1.48;;;9.10;99.90;;;;;;4982517;28;20037;-85
2022/05/04 01:21:33;;;;;;;14.82;2.45;;;9.10;99.90;;;;;;4974711;28;20031;-85
2022/05/04 01:23:59;;;;;;;6.22;1.40;;;9.10;99.90;;;;;;4971372;28;20055;-85
2022/05/04 01:26:25;;;;;;;6.72;1.88;;;9.10;99.90;;;;;;4978045;28;20089;-86
2022/05/04 01:28:51;;;;;;;7.70;2.35;;;9.10;99.90;;;;;;4976280;28;20544;-86
2022/05/04 01:31:16;;;;;;;9.73;2.20;;;9.10;99.90;;;;;;4965141;28;20077;-86
2022/05/04 01:33:42;;;;;;;10.32;2.28;;;9.10;99.90;;;;;;4975497;28;20113;-86
2022/05/04 01:36:07;;;;;;;9.95;1.95;;;9.10;99.90;;;;;;4977689;28;20371;-86
2022/05/04 01:38:34;;;;;;;10.73;2.20;;;9.10;99.90;;;;;;4985495;28;20032;-86
2022/05/04 01:41:00;;;;;;;8.07;1.77;;;9.00;99.90;;;;;;4977608;28;20026;-86
2022/05/04 01:43:26;;;;;;;8.23;1.80;;;9.10;99.90;;;;;;4993040;28;20035;-85
2022/05/04 01:45:52;;;;;;;8.40;2.00;;;9.00;99.90;;;;;;4978341;28;20069;-86
2022/05/04 01:48:17;;;;;;;10.82;1.77;;;9.00;99.90;;;;;;4977481;28;20026;-85
2022/05/04 01:50:43;;;;;;;11.13;2.15;;;9.00;99.90;;;;;;4996679;28;20045;-86
2022/05/04 01:53:08;;;;;;;6.05;1.88;;;9.00;99.90;;;;;;4976438;28;20450;-86
2022/05/04 01:55:34;;;;;;;8.57;1.63;;;9.00;99.90;;;;;;4976770;28;20034;-86
2022/05/04 01:58:00;;;;;;;11.65;2.70;;;9.00;99.90;;;;;;4986629;28;20027;-86
2022/05/04 02:00:26;;;;;;;13.32;2.35;;;9.00;99.90;;;;;;4959404;28;20023;-85
2022/05/04 02:02:53;;;;;;;8.48;2.00;;;9.00;99.90;;;;;;4977134;28;20434;-85
2022/05/04 02:05:20;;;;;;;10.25;2.30;;;9.00;99.90;;;;;;4978044;28;20061;-86
2022/05/04 02:07:45;;;;;;;10.98;2.25;;;8.90;99.90;;;;;;4972475;28;20037;-85
2022/05/04 02:10:11;;;;;;;10.05;2.20;;;8.90;99.90;;;;;;4977108;28;20034;-86
2022/05/04 02:12:37;;;;;;;9.45;2.53;;;8.80;99.90;;;;;;4976342;28;20490;-85
2022/05/04 02:15:08;;;;;;;9.45;2.10;;;8.80;99.90;;;;;;4977798;28;20037;-85
2022/05/04 02:17:34;;;;;;;8.20;1.95;;;8.80;99.90;;;;;;4977263;28;20026;-85
2022/05/04 02:19:59;;;;;;;9.85;1.95;;;8.80;99.90;;;;;;4974425;28;20033;-86
2022/05/04 02:22:25;;;;;;;9.25;2.20;;;8.80;99.90;;;;;;4977231;28;20037;-86
2022/05/04 02:24:50;;;;;;;8.05;2.00;;;8.80;99.90;;;;;;4977395;28;20018;-86
2022/05/04 02:27:16;;;;;;;11.85;2.05;;;8.80;99.90;;;;;;4971111;28;20080;-86
2022/05/04 02:29:41;;;;;;;11.38;2.22;;;8.80;99.90;;;;;;4994349;28;20057;-86
2022/05/04 02:32:08;;;;;;;14.13;2.35;;;8.80;99.90;;;;;;4973593;28;20410;-86
2022/05/04 02:34:33;;;;;;;11.48;2.40;;;8.80;99.90;;;;;;4976222;28;20018;-85
2022/05/04 02:39:43;;;;;;;12.32;2.13;;;8.70;99.90;;;;;;4975646;28;20122;-86
2022/05/04 02:42:10;;;;;;;10.63;2.85;;;8.70;99.90;;;;;;4965935;28;20121;-86
2022/05/04 02:44:35;;;;;;;6.75;1.85;;;8.80;99.90;;;;;;4976555;28;20065;-86
2022/05/04 02:47:01;;;;;;;9.13;2.00;;;8.70;99.90;;;;;;4975491;28;20046;-86
2022/05/04 02:49:26;;;;;;;9.77;2.22;;;8.70;99.90;;;;;;4976697;28;20054;-86
2022/05/04 02:51:52;;;;;;;12.00;2.33;;;8.70;99.90;;;;;;4976905;28;20125;-85
2022/05/04 02:54:17;;;;;;;10.63;2.45;;;8.70;99.90;;;;;;4961603;28;20033;-85
2022/05/04 02:56:43;;;;;;;12.63;2.35;;;8.70;99.90;;;;;;4961495;28;20034;-85
2022/05/04 02:59:08;;;;;;;11.93;1.90;;;8.70;99.90;;;;;;4973139;28;20026;-85
2022/05/04 03:04:18;;;;;;;9.07;2.13;;;8.60;99.90;;;;;;4974574;28;20074;-86
2022/05/04 03:06:43;;;;;;;9.65;2.35;;;8.60;99.90;;;;;;4977045;28;20034;-86
2022/05/04 03:09:10;;;;;;;10.70;2.25;;;8.50;99.90;;;;;;4960874;28;20042;-86
2022/05/04 03:11:55;;;;;;;8.25;2.33;;;8.50;99.90;;;;;;4968044;28;20138;-86
2022/05/04 03:14:23;;;;;;;12.77;2.25;;;8.50;99.90;;;;;;4962223;28;20026;-86
2022/05/04 03:16:49;;;;;;;13.05;2.15;;;8.50;99.90;;;;;;4965143;28;20084;-85
2022/05/04 03:19:15;;;;;;;14.77;2.60;;;8.40;99.90;;;;;;4970020;28;20129;-86
2022/05/04 03:21:41;;;;;;;10.43;2.38;;;8.40;99.90;;;;;;4977526;28;20030;-86
2022/05/04 03:24:07;;;;;;;11.05;2.50;;;8.40;99.90;;;;;;4976502;28;20517;-86
2022/05/04 03:26:33;;;;;;;10.73;3.13;;;8.30;99.90;;;;;;4976344;28;20037;-85
2022/05/04 03:28:58;;;;;;;10.85;2.22;;;8.30;99.90;;;;;;4975414;28;20482;-86
2022/05/04 03:31:24;;;;;;;10.73;2.25;;;8.30;99.90;;;;;;4973747;28;20034;-85
2022/05/04 03:33:50;;;;;;;11.60;1.92;;;8.30;99.90;;;;;;4975043;28;20034;-85
2022/05/04 03:36:16;;;;;;;12.90;2.80;;;8.20;99.90;;;;;;4975446;28;20494;-85
2022/05/04 03:38:41;;;;;;;12.98;2.03;;;8.20;99.90;;;;;;4968975;28;20026;-85
2022/05/04 03:41:07;;;;;;;14.60;2.42;;;8.20;99.90;;;;;;4972694;28;20455;-85
2022/05/04 03:43:32;;;;;;;12.65;2.03;;;8.20;99.90;;;;;;4963457;28;20023;-85
2022/05/04 03:46:15;;;;;;;11.55;2.55;;;8.20;99.90;;;;;;4985687;28;20035;-85
2022/05/04 03:48:42;;;;;;;11.25;2.58;;;8.20;99.90;;;;;;4966296;28;20078;-85
2022/05/04 03:51:09;;;;;;;9.00;2.03;;;8.10;99.90;;;;;;4974058;28;20031;-85
2022/05/04 03:53:36;;;;;;;9.70;2.42;;;8.10;99.90;;;;;;4975784;28;20019;-86
2022/05/04 03:56:01;;;;;;;11.23;2.30;;;8.00;99.90;;;;;;4970906;28;20047;-86
2022/05/04 03:58:27;;;;;;;7.18;2.55;;;8.00;99.90;;;;;;4967342;28;20066;-86
2022/05/04 04:00:52;;;;;;;11.50;2.22;;;8.00;99.90;;;;;;4975565;28;20045;-86
2022/05/04 04:03:18;;;;;;;10.18;2.15;;;7.90;99.90;;;;;;4975334;28;20026;-85
2022/05/04 04:05:44;;;;;;;10.23;2.17;;;7.90;99.90;;;;;;4975250;28;20394;-85
2022/05/04 04:08:09;;;;;;;11.73;2.58;;;7.90;99.90;;;;;;4963002;28;20110;-86
2022/05/04 04:10:35;;;;;;;10.55;2.45;;;7.80;99.90;;;;;;4966421;28;20504;-85
2022/05/04 04:13:01;;;;;;;13.55;2.60;;;7.80;99.90;;;;;;4974692;28;20027;-86
2022/05/04 04:15:27;;;;;;;10.40;2.50;;;7.70;99.90;;;;;;4976347;28;20038;-86
2022/05/04 04:17:54;;;;;;;7.50;2.10;;;7.70;99.90;;;;;;4973071;28;20482;-86
2022/05/04 04:23:04;;;;;;;8.88;2.53;;;7.60;99.90;;;;;;4991486;28;20398;-86
2022/05/04 04:25:30;;;;;;;10.70;2.65;;;7.50;99.90;;;;;;4972921;28;20031;-86
2022/05/04 04:27:55;;;;;;;18.17;3.45;;;7.50;99.90;;;;;;4969382;28;20181;-86
2022/05/04 04:30:21;;;;;;;10.25;2.30;;;7.40;99.90;;;;;;4971188;28;20552;-85
2022/05/04 04:32:46;;;;;;;6.13;2.28;;;7.30;99.90;;;;;;4974384;28;20065;-86
2022/05/04 04:35:12;;;;;;;8.90;2.67;;;7.20;99.90;;;;;;4975640;28;20018;-87
2022/05/04 04:37:37;;;;;;;9.43;2.88;;;7.20;99.90;;;;;;4973016;28;20023;-86
2022/05/04 04:40:03;;;;;;;13.85;2.60;;;7.10;99.90;;;;;;4973167;28;20073;-86
2022/05/04 04:42:29;;;;;;;18.60;2.83;;;7.10;99.90;;;;;;4967621;28;20028;-86
2022/05/04 04:44:54;;;;;;;10.48;2.80;;;7.10;99.90;;;;;;4975280;28;20122;-87
2022/05/04 04:47:20;;;;;;;9.45;2.22;;;7.10;99.90;;;;;;4992868;28;20030;-86
2022/05/04 04:49:45;;;;;;;11.23;2.22;;;7.10;99.90;;;;;;4975147;28;20033;-86
2022/05/04 04:52:11;;;;;;;8.30;2.30;;;7.10;99.90;;;;;;4974999;28;20030;-86
2022/05/04 04:54:36;;;;;;;15.88;2.80;;;7.10;99.90;;;;;;4975927;28;20027;-86
2022/05/04 04:57:02;;;;;;;10.05;2.92;;;7.10;99.90;;;;;;4975513;28;20026;-86
2022/05/04 04:59:27;;;;;;;8.07;2.53;;;7.10;99.90;;;;;;4974882;28;20026;-86
2022/05/04 05:01:53;;;;;;;14.93;2.88;;;7.10;99.90;;;;;;4970230;28;20118;-86
2022/05/04 05:04:18;;;;;;;8.10;2.38;;;7.20;99.90;;;;;;4968873;28;20050;-86
2022/05/04 05:06:44;;;;;;;18.80;2.90;;;7.20;99.90;;;;;;4976326;28;20035;-86
2022/05/04 05:09:09;;;;;;;11.90;3.20;;;7.20;99.90;;;;;;4975971;28;20486;-86
2022/05/04 05:11:35;;;;;;;14.05;3.20;;;7.20;99.90;;;;;;4977132;28;20088;-85
2022/05/04 05:16:45;;;;;;;9.63;2.67;;;7.30;99.90;;;;;;4989838;28;20037;-86
2022/05/04 05:19:10;;;;;;;13.63;3.42;;;7.30;99.90;;;;;;4988523;28;20406;-86
2022/05/04 05:21:36;;;;;;;12.30;2.80;;;7.40;99.90;;;;;;4971007;28;20089;-87
2022/05/04 05:24:02;;;;;;;8.20;2.42;;;7.40;99.90;;;;;;4973874;28;20135;-87
2022/05/04 05:26:27;;;;;;;8.82;2.08;;;7.50;99.90;;;;;;4970584;28;20030;-87
2022/05/04 05:28:53;;;;;;;9.70;2.53;;;7.50;99.90;;;;;;4974576;28;20026;-86
2022/05/04 05:31:18;;;;;;;13.80;2.80;;;7.60;99.90;;;;;;4978196;28;20165;-86
2022/05/04 05:33:46;;;;;;;16.33;3.85;;;7.70;99.90;;;;;;4968977;28;20031;-86
2022/05/04 05:36:11;;;;;;;12.25;2.78;;;7.90;99.90;;;;;;4970178;28;20094;-86
2022/05/04 05:38:37;;;;;;;12.23;3.10;;;8.10;99.90;;;;;;4973968;28;20117;-86
2022/05/04 05:41:02;;;;;;;11.05;2.42;;;8.30;99.90;;;;;;4965866;28;20050;-87
2022/05/04 05:43:30;;;;;;;13.02;2.42;;;8.50;99.90;;;;;;4971044;28;20215;-86
2022/05/04 05:45:57;;;;;;;7.57;1.98;;;8.70;99.90;;;;;;4971936;28;20019;-86
2022/05/04 05:48:22;;;;;;;9.05;2.03;;;8.80;99.90;;;;;;4968723;28;20035;-86
2022/05/04 05:50:48;;;;;;;13.40;2.60;;;8.90;99.90;;;;;;4966332;28;20093;-86
2022/05/04 05:53:14;;;;;;;10.48;2.47;;;8.90;99.90;;;;;;4971652;28;20022;-86
2022/05/04 05:55:40;;;;;;;5.60;2.05;;;9.00;99.90;;;;;;4974804;28;20027;-87
2022/05/04 05:58:06;;;;;;;10.70;2.55;;;9.00;99.90;;;;;;4970902;28;20026;-87
2022/05/04 06:00:31;;;;;;;12.43;2.67;;;9.00;99.90;;;;;;4968025;28;20034;-87
2022/05/04 06:02:57;;;;;;;14.68;3.03;;;9.10;99.90;;;;;;4968957;28;20033;-87
2022/05/04 06:05:22;;;;;;;12.50;2.50;;;9.20;99.90;;;;;;4973576;28;20797;-86
2022/05/04 06:07:51;;;;;;;10.30;2.75;;;9.20;99.90;;;;;;4969349;28;20026;-86
2022/05/04 06:10:17;;;;;;;14.40;2.58;;;9.20;99.90;;;;;;4977538;28;20022;-86
2022/05/04 06:12:43;;;;;;;11.77;2.40;;;9.30;99.90;;;;;;4994768;28;20038;-86
2022/05/04 06:15:10;;;;;;;11.20;2.28;;;9.40;99.90;;;;;;4976395;28;20683;-87
2022/05/04 06:17:36;;;;;;;18.23;3.13;;;9.40;99.90;;;;;;4974120;28;20030;-87
2022/05/04 06:20:05;;;;;;;13.30;2.33;;;9.40;99.90;;;;;;4973863;28;20098;-87
2022/05/04 06:22:31;;;;;;;7.47;2.10;;;9.40;99.90;;;;;;4977275;28;20030;-86
2022/05/04 06:24:56;;;;;;;10.77;2.60;;;9.50;99.90;;;;;;4976657;28;20026;-86
2022/05/04 06:27:22;;;;;;;15.30;2.58;;;9.50;99.90;;;;;;4977064;28;20022;-86
2022/05/04 06:35:17;;;;;;;9.02;2.13;;;9.70;99.90;;;;;;4980786;28;20048;-86
2022/05/04 06:37:43;;;;;;;11.05;2.03;;;9.80;99.90;;;;;;4974477;28;20113;-86
2022/05/04 06:40:09;;;;;;;8.15;2.45;;;9.90;99.90;;;;;;4976104;28;20026;-86
2022/05/04 06:42:35;;;;;;;7.97;1.98;;;10.00;99.90;;;;;;4976701;28;20018;-86
2022/05/04 06:45:02;;;;;;;13.43;2.30;;;10.10;99.90;;;;;;4976556;28;20037;-86
2022/05/04 06:47:28;;;;;;;12.27;2.20;;;10.10;99.90;;;;;;4976738;28;20034;-86
2022/05/04 06:49:54;;;;;;;11.02;2.50;;;10.10;99.90;;;;;;4976994;28;20022;-86
2022/05/04 06:52:20;;;;;;;17.10;2.05;;;10.20;99.90;;;;;;4976145;28;20153;-86
2022/05/04 06:54:46;;;;;;;9.65;2.35;;;10.30;99.90;;;;;;4977100;28;20098;-86
2022/05/04 06:57:11;;;;;;;9.63;1.55;;;10.30;99.80;;;;;;4976873;28;20031;-86
2022/05/04 06:59:37;;;;;;;11.77;2.08;;;10.40;99.80;;;;;;4970238;28;20019;-86
2022/05/04 07:02:03;;;;;;;13.65;1.77;;;10.40;99.30;;;;;;4962932;28;20074;-85
2022/05/04 07:04:28;;;;;;;10.45;1.70;;;10.50;99.40;;;;;;4974702;28;20034;-86
2022/05/04 07:06:54;;;;;;;9.90;1.83;;;10.50;99.40;;;;;;4976673;28;20026;-87
2022/05/04 07:09:19;;;;;;;9.75;1.20;;;10.60;99.30;;;;;;4976034;28;20030;-87
2022/05/04 07:11:45;;;;;;;7.10;1.27;;;10.70;99.20;;;;;;4975476;28;20026;-87
2022/05/04 07:14:10;;;;;;;11.98;1.73;;;10.80;99.00;;;;;;4972252;28;20027;-88
2022/05/04 07:16:36;;;;;;;8.65;2.13;;;10.90;98.80;;;;;;4974245;28;20184;-87
2022/05/04 07:19:02;;;;;;;12.20;2.28;;;11.00;98.20;;;;;;4975962;28;20018;-86
2022/05/04 07:21:28;;;;;;;4.78;1.10;;;11.00;97.80;;;;;;4972272;28;20031;-87
2022/05/04 07:23:53;;;;;;;5.88;1.23;;;11.00;97.90;;;;;;4974124;28;20747;-87
2022/05/04 07:26:19;;;;;;;9.13;1.85;;;11.10;97.30;;;;;;4969182;28;20050;-87
2022/05/04 07:28:44;;;;;;;9.43;1.77;;;11.10;97.10;;;;;;4965676;28;20018;-87
2022/05/04 07:31:10;;;;;;;7.32;1.77;;;11.20;96.70;;;;;;4975098;28;20034;-87
2022/05/04 07:33:35;;;;;;;14.93;2.67;;;11.20;96.80;;;;;;4964849;28;20051;-87
2022/05/04 07:36:01;;;;;;;5.55;1.33;;;11.30;96.80;;;;;;4965377;28;20030;-86
2022/05/04 07:38:26;;;;;;;8.45;1.58;;;11.40;96.20;;;;;;4973414;28;20027;-86
2022/05/04 07:43:36;;;;;;;11.60;1.75;;;11.60;95.40;;;;;;4989945;28;20037;-87
2022/05/04 07:46:02;;;;;;;8.68;1.95;;;11.60;94.90;;;;;;4971961;28;20070;-87
2022/05/04 07:48:27;;;;;;;6.40;1.67;;;11.60;94.90;;;;;;4975899;28;20041;-87
2022/05/04 07:50:53;;;;;;;9.52;1.63;;;11.60;95.10;;;;;;4974880;28;20038;-87
2022/05/04 07:53:18;;;;;;;6.65;1.90;;;11.70;95.10;;;;;;4992349;28;20034;-86
2022/05/04 07:55:44;;;;;;;5.90;1.42;;;11.70;94.90;;;;;;4975810;28;20402;-87
2022/05/04 07:58:09;;;;;;;2.72;1.17;;;11.80;95.10;;;;;;4969443;28;20829;-87
2022/05/04 08:06:04;;;;;;;4.97;1.23;;;12.10;94.40;;;;;;4992133;28;20509;-88
2022/05/04 08:08:29;;;;;;;8.75;1.95;;;12.30;94.20;;;;;;4973164;28;20379;-87
2022/05/04 08:10:56;;;;;;;8.02;2.03;;;12.30;93.90;;;;;;4969677;28;20061;-87
2022/05/04 08:13:22;;;;;;;6.95;1.60;;;12.40;93.80;;;;;;4975750;28;20034;-87
2022/05/04 08:15:47;;;;;;;7.53;2.15;;;12.40;93.50;;;;;;4975571;28;20022;-87
2022/05/04 08:18:13;;;;;;;4.32;1.63;;;12.40;93.50;;;;;;4975591;28;20430;-87
2022/05/04 08:20:39;;;;;;;8.68;2.78;;;12.50;93.40;;;;;;4970525;28;20085;-87
2022/05/04 08:23:04;;;;;;;10.93;2.67;;;12.50;93.30;;;;;;4975654;28;20026;-87
2022/05/04 08:25:31;;;;;;;8.38;2.20;;;12.60;93.30;;;;;;4975975;28;20363;-87
2022/05/04 08:27:56;;;;;;;9.13;3.05;;;12.60;93.10;;;;;;4975757;28;20026;-86
2022/05/04 08:30:23;;;;;;;12.43;3.10;;;12.60;93.10;;;;;;4975053;28;20070;-87
2022/05/04 08:32:50;;;;;;;11.77;2.58;;;12.70;92.90;;;;;;4993175;28;20050;-87
2022/05/04 08:35:16;;;;;;;8.20;2.00;;;12.80;92.80;;;;;;4975777;28;20041;-86
2022/05/04 08:37:42;;;;;;;10.68;3.25;;;12.90;92.80;;;;;;4992042;28;20030;-87
2022/05/04 08:40:09;;;;;;;6.32;3.08;;;12.90;93.00;;;;;;4979820;28;20052;-87
2022/05/04 08:42:40;;;;;;;10.90;3.30;;;13.00;92.50;;;;;;4980796;28;20030;-87
2022/05/04 08:45:06;;;;;;;12.65;2.92;;;13.00;92.60;;;;;;4979020;28;20026;-87
2022/05/04 08:47:33;;;;;;;8.32;2.65;;;13.10;92.30;;;;;;4986205;28;20025;-85
2022/05/04 08:49:58;;;;;;;9.60;2.90;;;13.10;91.90;;;;;;4987623;28;20498;-85
2022/05/04 08:52:27;;;;;;;9.30;2.58;;;13.10;91.80;;;;;;4978875;28;20125;-85
2022/05/04 08:54:53;;;;;;;11.20;2.97;;;13.10;91.50;;;;;;4975772;28;20030;-85
2022/05/04 08:57:19;;;;;;;7.70;3.00;;;13.10;92.00;;;;;;4965625;28;20030;-84
2022/05/04 08:59:45;;;;;;;12.07;3.80;;;13.20;91.80;;;;;;4992967;28;20463;-84
2022/05/04 09:02:11;;;;;;;9.05;2.90;;;13.30;91.70;;;;;;4997849;28;20018;-85
2022/05/04 09:04:44;;;;;;;10.13;3.40;;;13.50;91.20;;;;;;4982939;28;20088;-85
2022/05/04 09:07:26;;;;;;;12.48;4.00;;;13.60;90.80;;;;;;4978231;28;20031;-85
2022/05/04 09:09:53;;;;;;;8.32;3.55;;;13.60;90.70;;;;;;4972899;28;20591;-85
2022/05/04 09:12:18;;;;;;;14.50;3.50;;;13.50;90.60;;;;;;4978185;28;20043;-85
2022/05/04 09:14:44;;;;;;;7.95;3.03;;;13.30;90.80;;;;;;4978336;28;20489;-85
2022/05/04 09:17:13;;;;;;;61.35;7.60;;;13.30;91.20;;;;;;4975150;28;20027;-85
2022/05/04 09:20:44;;;;;;;11.73;4.70;;;13.30;91.60;;;;;;4991992;28;20038;-83
2022/05/04 09:22:27;;;;;;;10.77;4.68;;;13.50;91.60;;;;;;4993857;28;20110;-84
2022/05/04 09:24:56;;;;;;;11.60;4.13;;;13.70;91.30;;;;;;4976002;28;20122;-85
2022/05/04 09:27:29;;;;;;;7.90;3.70;;;14.00;91.20;;;;;;4978437;28;20026;-84
2022/05/04 09:29:59;;;;;;;11.30;3.92;;;14.20;91.10;;;;;;4968219;28;20360;-83
2022/05/04 09:32:30;;;;;;;12.27;4.03;;;14.50;90.70;;;;;;4976263;28;20050;-83
2022/05/04 09:34:55;;;;;;;8.32;4.20;;;14.70;90.00;;;;;;4975869;28;20641;-84
2022/05/04 09:45:38;;;;;;;8.60;4.43;;;15.00;87.20;;;;;;4986273;28;20513;-84
2022/05/04 09:48:05;;;;;;;9.32;4.50;;;15.00;86.60;;;;;;4976892;28;20034;-84
2022/05/04 09:50:38;;;;;;;11.35;4.78;;;14.90;86.30;;;;;;4994225;28;20038;-84
2022/05/04 09:53:04;;;;;;;10.82;4.18;;;14.90;86.40;;;;;;4974566;28;20026;-84
2022/05/04 09:55:30;;;;;;;12.00;4.38;;;14.90;85.80;;;;;;4977408;28;20125;-84
2022/05/04 09:57:56;;;;;;;10.40;3.55;;;14.90;85.30;;;;;;4976817;28;20506;-84
2022/05/04 10:00:24;;;;;;;8.20;4.50;;;14.80;85.10;;;;;;4994361;28;20026;-84
2022/05/04 10:02:52;;;;;;;9.93;4.60;;;14.80;85.30;;;;;;4976427;28;20113;-84
2022/05/04 10:05:19;;;;;;;10.40;5.05;;;14.90;85.10;;;;;;4964997;28;20026;-84
2022/05/04 10:07:49;;;;;;;17.50;5.80;;;14.90;84.20;;;;;;4977255;28;20033;-84
2022/05/04 10:10:18;;;;;;;14.05;4.78;;;14.90;83.10;;;;;;4970972;28;20516;-84
2022/05/04 10:12:44;;;;;;;8.80;4.00;;;14.90;83.30;;;;;;4977412;28;20030;-84
2022/05/04 10:15:18;;;;;;;12.05;4.60;;;14.90;83.50;;;;;;4964962;28;20347;-86
2022/05/04 10:17:49;;;;;;;11.75;4.90;;;14.90;83.10;;;;;;4972654;28;20035;-87
2022/05/04 10:20:33;;;;;;;6.67;3.90;;;15.00;82.50;;;;;;4973968;28;20035;-86
2022/05/04 10:23:16;;;;;;;8.48;4.32;;;14.90;82.30;;;;;;4966190;28;20029;-86
2022/05/04 10:25:43;;;;;;;8.82;4.70;;;14.90;82.80;;;;;;4988270;28;21775;-87
2022/05/04 10:28:12;;;;;;;10.50;4.20;;;14.90;82.30;;;;;;5002496;28;20390;-87
2022/05/04 10:30:55;;;;;;;10.00;3.75;;;14.90;82.10;;;;;;4977566;28;20494;-87
2022/05/04 10:33:30;;;;;;;13.48;4.65;;;15.00;82.10;;;;;;4977577;28;20103;-87
2022/05/04 10:35:56;;;;;;;12.15;4.72;;;15.00;81.50;;;;;;4972861;28;20070;-86
2022/05/04 10:38:28;;;;;;;7.78;4.32;;;15.00;81.70;;;;;;4961548;28;20022;-87
2022/05/04 10:40:58;;;;;;;8.03;4.00;;;15.10;81.50;;;;;;4978467;28;20033;-86
2022/05/04 10:43:34;;;;;;;10.70;4.20;;;15.10;81.60;;;;;;4992842;28;20309;-86
2022/05/04 10:46:07;;;;;;;8.35;3.35;;;15.20;81.20;;;;;;4974318;28;20081;-87
2022/05/04 10:48:33;;;;;;;10.00;4.32;;;15.30;80.30;;;;;;4972811;28;20466;-85
2022/05/04 10:51:18;;;;;;;11.13;3.67;;;15.50;79.10;;;;;;4978471;28;20072;-87
2022/05/04 10:53:45;;;;;;;8.35;3.80;;;15.70;79.00;;;;;;4987682;28;20027;-85
2022/05/04 10:56:20;;;;;;;9.32;4.20;;;15.70;77.90;;;;;;4976351;28;20027;-85
2022/05/04 10:58:49;;;;;;;7.25;3.42;;;15.80;78.40;;;;;;4976755;28;20026;-85
2022/05/04 11:01:30;;;;;;;10.85;4.25;;;16.00;78.40;;;;;;4979114;28;20489;-92
2022/05/04 11:04:14;;;;;;;10.00;4.28;;;16.00;78.20;;;;;;4977627;28;20031;-91
2022/05/04 11:06:48;;;;;;;10.15;4.80;;;16.00;77.90;;;;;;4976903;28;20674;-90
2022/05/04 11:09:19;;;;;;;7.47;4.10;;;16.00;77.20;;;;;;4992509;28;20057;-91
2022/05/04 11:11:48;;;;;;;12.48;4.43;;;16.00;77.50;;;;;;4976678;28;20076;-90
2022/05/04 11:14:15;;;;;;;7.68;3.83;;;16.10;76.20;;;;;;4976734;28;20026;-90
2022/05/04 11:16:42;;;;;;;9.35;4.40;;;16.00;76.00;;;;;;4976406;28;20038;-90
2022/05/04 11:19:11;;;;;;;9.48;4.15;;;15.90;75.60;;;;;;4976498;28;20045;-92
2022/05/04 11:21:45;;;;;;;9.15;4.78;;;15.70;75.70;;;;;;4977073;28;20117;-92
2022/05/04 11:24:13;;;;;;;12.32;4.90;;;15.70;75.80;;;;;;4976611;28;20049;-91
2022/05/04 11:26:43;;;;;;;9.27;4.47;;;15.70;76.10;;;;;;4977400;28;20037;-92
2022/05/04 11:29:20;;;;;;;14.98;5.45;;;15.70;75.40;;;;;;4976281;28;20121;-91
2022/05/04 11:31:52;;;;;;;15.90;4.78;;;15.80;75.00;;;;;;4976638;28;20054;-91
2022/05/04 11:34:18;;;;;;;8.90;3.97;;;15.80;75.30;;;;;;4976849;28;20026;-91
2022/05/04 11:36:46;;;;;;;7.43;4.65;;;16.00;75.60;;;;;;4971354;28;20514;-91
2022/05/04 11:39:17;;;;;;;9.60;4.95;;;16.20;74.70;;;;;;4970597;28;20026;-91
2022/05/04 11:41:54;;;;;;;7.75;3.92;;;16.40;73.80;;;;;;4976573;28;20030;-92
2022/05/04 11:44:21;;;;;;;11.30;5.07;;;16.50;74.00;;;;;;4976230;28;20120;-92
2022/05/04 11:46:48;;;;;;;8.60;4.78;;;16.50;73.70;;;;;;4976173;28;20030;-91
2022/05/04 11:49:14;;;;;;;9.27;3.85;;;16.60;74.10;;;;;;4973610;28;20483;-91
2022/05/04 11:51:40;;;;;;;9.50;4.45;;;16.70;73.90;;;;;;4958119;28;20093;-86
2022/05/04 11:54:06;;;;;;;6.88;4.43;;;16.80;73.50;;;;;;4975448;28;20018;-86
2022/05/04 11:56:33;;;;;;;7.72;4.25;;;16.90;73.30;;;;;;4987977;28;20370;-86
2022/05/04 11:58:59;;;;;;;13.32;4.65;;;16.80;72.80;;;;;;4976533;28;20125;-86
2022/05/04 12:01:25;;;;;;;10.43;4.80;;;16.80;71.70;;;;;;4965083;28;20121;-86
2022/05/04 12:03:51;;;;;;;9.65;4.18;;;16.70;70.80;;;;;;4971223;28;20041;-86
2022/05/04 12:06:17;;;;;;;8.50;4.75;;;16.60;70.80;;;;;;4976288;28;20141;-86
2022/05/04 12:08:43;;;;;;;8.65;4.75;;;16.50;70.60;;;;;;4975779;28;20113;-87
2022/05/04 12:11:10;;;;;;;7.25;4.03;;;16.40;70.60;;;;;;4959547;28;20125;-85
2022/05/04 12:13:37;;;;;;;9.13;3.58;;;16.40;71.40;;;;;;4971776;28;20499;-85
2022/05/04 12:16:04;;;;;;;8.88;4.63;;;16.40;70.70;;;;;;4967572;28;20470;-85
2022/05/04 12:18:32;;;;;;;10.23;4.75;;;16.40;70.30;;;;;;4988463;28;20054;-85
2022/05/04 12:21:14;;;;;;;11.65;4.25;;;16.60;71.10;;;;;;4981106;28;20512;-85
2022/05/04 12:23:51;;;;;;;12.32;5.05;;;16.70;71.10;;;;;;4980736;28;20026;-85
2022/05/04 12:26:17;;;;;;;10.00;4.47;;;16.70;71.00;;;;;;4979401;28;20494;-85
2022/05/04 12:28:44;;;;;;;6.80;4.68;;;16.70;70.70;;;;;;4979441;28;20026;-85
2022/05/04 12:33:59;;;;;;;10.55;4.78;;;16.60;70.90;;;;;;4959416;28;20142;-85
2022/05/04 12:36:25;;;;;;;12.75;5.57;;;16.90;72.10;;;;;;4977915;28;20121;-84
2022/05/04 12:38:52;;;;;;;10.68;5.22;;;17.10;72.40;;;;;;4979219;28;20034;-84
2022/05/04 12:41:21;;;;;;;11.02;5.07;;;17.20;71.30;;;;;;4978047;28;20026;-85
2022/05/04 12:43:49;;;;;;;10.95;5.28;;;17.10;70.10;;;;;;4978539;28;20545;-85
2022/05/04 12:46:16;;;;;;;9.95;4.85;;;17.10;70.20;;;;;;4978921;28;20443;-85
2022/05/04 12:48:47;;;;;;;8.32;4.80;;;17.10;69.80;;;;;;4980376;28;20065;-85
2022/05/04 12:51:17;;;;;;;8.43;4.45;;;17.10;68.80;;;;;;4979877;28;20042;-85
2022/05/04 12:53:46;;;;;;;8.88;4.72;;;17.20;70.50;;;;;;4976559;28;20062;-85
2022/05/04 12:59:04;;;;;;;9.27;4.35;;;17.40;69.30;;;;;;4965082;28;20034;-86
2022/05/04 13:01:31;;;;;;;12.95;4.55;;;17.50;68.20;;;;;;4978592;28;20383;-85
2022/05/04 13:03:58;;;;;;;11.93;4.63;;;17.50;67.60;;;;;;4978492;28;20482;-85
2022/05/04 13:06:24;;;;;;;12.25;4.95;;;17.50;68.40;;;;;;4979424;28;20105;-85
2022/05/04 13:08:50;;;;;;;13.50;5.57;;;17.60;68.10;;;;;;4967253;28;20130;-86
2022/05/04 13:11:16;;;;;;;14.32;5.95;;;17.70;68.00;;;;;;4977711;28;20034;-86
2022/05/04 13:13:42;;;;;;;9.82;3.97;;;17.90;67.60;;;;;;4978636;28;20022;-86
2022/05/04 13:16:07;;;;;;;10.57;5.28;;;18.10;66.40;;;;;;4978462;28;20037;-85
2022/05/04 13:18:33;;;;;;;17.63;5.43;;;18.00;64.40;;;;;;4978650;28;20021;-85
2022/05/04 13:20:59;;;;;;;11.88;5.05;;;17.90;65.40;;;;;;4977446;28;20120;-85
2022/05/04 13:23:24;;;;;;;15.10;5.82;;;17.90;66.60;;;;;;4974895;28;20037;-85